createdAt,value
2022-08-05T00:01:35.637Z,17.20
2022-08-05T00:04:05.185Z,17.20
2022-08-05T00:06:36.565Z,17.10
2022-08-05T00:09:05.422Z,17.00
2022-08-05T00:11:49.037Z,17.10
2022-08-05T00:14:27.837Z,17.10
2022-08-05T00:16:57.920Z,17.20
2022-08-05T00:19:33.206Z,17.20
2022-08-05T00:22:17.867Z,17.10
2022-08-05T00:24:45.993Z,17.10
2022-08-05T00:27:35.766Z,17.10
2022-08-05T00:30:04.948Z,17.10
2022-08-05T00:32:42.558Z,17.10
2022-08-05T00:35:10.690Z,17.10
2022-08-05T00:37:52.408Z,17.00
2022-08-05T00:40:28.374Z,17.00
2022-08-05T00:42:59.671Z,17.00
2022-08-05T00:45:42.898Z,17.00
2022-08-05T00:48:13.218Z,17.00
2022-08-05T00:50:45.840Z,16.90
2022-08-05T00:54:00.001Z,17.00
2022-08-05T00:56:10.544Z,16.90
2022-08-05T00:58:42.426Z,16.90
2022-08-05T01:01:16.105Z,16.80
2022-08-05T01:04:11.812Z,16.80
2022-08-05T01:06:43.794Z,16.80
2022-08-05T01:09:21.607Z,16.80
2022-08-05T01:11:52.029Z,16.70
2022-08-05T01:14:27.791Z,16.70
2022-08-05T01:16:56.607Z,16.70
2022-08-05T01:19:36.839Z,16.60
2022-08-05T01:22:27.901Z,16.60
2022-08-05T01:25:19.366Z,16.50
2022-08-05T01:27:54.868Z,16.50
2022-08-05T01:30:34.063Z,16.40
2022-08-05T01:33:08.072Z,16.50
2022-08-05T01:35:52.239Z,16.40
2022-08-05T01:38:26.871Z,16.40
2022-08-05T01:40:58.585Z,16.40
2022-08-05T01:43:30.741Z,16.30
2022-08-05T01:46:07.117Z,16.40
2022-08-05T01:48:49.396Z,16.30
2022-08-05T01:51:21.015Z,16.30
2022-08-05T01:53:57.419Z,16.20
2022-08-05T01:58:10.128Z,16.20
2022-08-05T01:59:21.354Z,16.10
2022-08-05T02:01:54.794Z,16.10
2022-08-05T02:04:24.611Z,16.10
2022-08-05T02:06:54.238Z,16.10
2022-08-05T02:09:23.772Z,16.00
2022-08-05T02:12:01.647Z,16.10
2022-08-05T02:14:49.881Z,16.00
2022-08-05T02:18:27.998Z,16.00
2022-08-05T02:20:12.014Z,15.90
2022-08-05T02:22:42.735Z,15.90
2022-08-05T02:25:25.058Z,15.80
2022-08-05T02:28:00.146Z,15.80
2022-08-05T02:30:34.401Z,15.80
2022-08-05T02:33:04.039Z,15.80
2022-08-05T02:35:37.779Z,15.70
2022-08-05T02:38:19.390Z,15.70
2022-08-05T02:40:50.152Z,15.60
2022-08-05T02:43:19.049Z,15.70
2022-08-05T02:45:52.897Z,15.60
2022-08-05T02:48:29.356Z,15.60
2022-08-05T02:51:00.388Z,15.60
2022-08-05T02:53:39.566Z,15.60
2022-08-05T02:56:15.897Z,15.60
2022-08-05T02:58:51.290Z,15.60
2022-08-05T03:01:23.464Z,15.50
2022-08-05T03:04:02.543Z,15.50
2022-08-05T03:06:57.089Z,15.60
2022-08-05T03:09:27.103Z,15.50
2022-08-05T03:12:05.990Z,15.50
2022-08-05T03:14:34.136Z,15.50
2022-08-05T03:17:13.566Z,15.50
2022-08-05T03:19:45.615Z,15.50
2022-08-05T03:22:16.618Z,15.40
2022-08-05T03:24:50.957Z,15.40
2022-08-05T03:27:24.189Z,15.40
2022-08-05T03:30:10.909Z,15.30
2022-08-05T03:32:39.542Z,15.30
2022-08-05T03:35:09.005Z,15.30
2022-08-05T03:37:44.786Z,15.40
2022-08-05T03:40:14.964Z,15.40
2022-08-05T03:42:52.580Z,15.40
2022-08-05T03:45:23.295Z,15.50
2022-08-05T03:47:57.006Z,15.50
2022-08-05T03:50:34.365Z,15.50
2022-08-05T03:55:52.077Z,15.60
2022-08-05T03:56:26.897Z,15.60
2022-08-05T03:59:02.193Z,15.60
2022-08-05T04:01:34.824Z,15.60
2022-08-05T04:04:09.683Z,15.70
2022-08-05T04:06:47.612Z,15.70
2022-08-05T04:09:26.146Z,15.80
2022-08-05T04:11:56.723Z,15.80
2022-08-05T04:14:29.891Z,15.80
2022-08-05T04:17:02.925Z,15.80
2022-08-05T04:19:31.330Z,15.80
2022-08-05T04:22:08.042Z,15.80
2022-08-05T04:24:44.015Z,15.90
2022-08-05T04:27:13.711Z,15.90
2022-08-05T04:29:44.321Z,16.00
2022-08-05T04:32:15.665Z,16.00
2022-08-05T04:34:58.893Z,16.10
2022-08-05T04:38:01.472Z,16.10
2022-08-05T04:40:14.810Z,16.30
2022-08-05T04:42:50.119Z,16.30
2022-08-05T04:45:31.157Z,16.40
2022-08-05T04:48:07.617Z,16.40
2022-08-05T04:51:01.701Z,16.60
2022-08-05T04:53:35.514Z,16.70
2022-08-05T04:56:32.400Z,16.80
2022-08-05T04:58:57.978Z,16.90
2022-08-05T05:02:06.326Z,17.00
2022-08-05T05:04:17.535Z,17.20
2022-08-05T05:06:49.345Z,17.50
2022-08-05T05:09:31.851Z,17.80
2022-08-05T05:12:02.058Z,18.00
2022-08-05T05:14:32.018Z,18.20
2022-08-05T05:17:01.154Z,18.40
2022-08-05T05:19:37.146Z,18.60
2022-08-05T05:22:23.924Z,18.60
2022-08-05T05:24:58.147Z,18.70
2022-08-05T05:27:41.506Z,18.80
2022-08-05T05:30:28.770Z,18.90
2022-08-05T05:33:00.848Z,18.90
2022-08-05T05:35:38.111Z,19.00
2022-08-05T05:38:14.179Z,19.10
2022-08-05T05:40:51.391Z,19.20
2022-08-05T05:43:56.382Z,19.30
2022-08-05T05:46:17.647Z,19.50
2022-08-05T05:48:48.899Z,19.60
2022-08-05T05:51:21.075Z,19.70
2022-08-05T05:53:57.321Z,19.80
2022-08-05T05:56:34.765Z,20.00
2022-08-05T05:59:07.841Z,20.20
2022-08-05T06:01:38.250Z,20.40
2022-08-05T06:04:11.695Z,20.50
2022-08-05T06:06:43.185Z,20.70
2022-08-05T06:09:16.983Z,20.80
2022-08-05T06:12:01.130Z,21.00
2022-08-05T06:14:31.243Z,21.20
2022-08-05T06:17:02.133Z,21.40
2022-08-05T06:19:56.807Z,21.60
2022-08-05T06:22:33.602Z,21.80
2022-08-05T06:25:59.513Z,22.00
2022-08-05T06:28:10.812Z,22.20
2022-08-05T06:30:41.400Z,22.40
2022-08-05T06:33:09.767Z,22.50
2022-08-05T06:36:06.972Z,22.80
2022-08-05T06:38:36.149Z,22.90
2022-08-05T06:41:08.086Z,23.20
2022-08-05T06:43:57.478Z,23.40
2022-08-05T06:46:30.320Z,23.60
2022-08-05T06:49:02.157Z,23.80
2022-08-05T06:51:35.618Z,24.00
2022-08-05T06:54:09.131Z,24.20
2022-08-05T06:56:42.840Z,24.30
2022-08-05T06:59:23.175Z,24.60
2022-08-05T07:01:52.811Z,24.70
2022-08-05T07:04:21.083Z,25.00
2022-08-05T07:06:50.333Z,25.10
2022-08-05T07:09:18.731Z,25.30
2022-08-05T07:11:51.736Z,25.50
2022-08-05T07:14:38.445Z,25.50
2022-08-05T07:18:00.692Z,25.60
2022-08-05T07:22:49.615Z,25.90
2022-08-05T07:25:54.018Z,26.10
2022-08-05T07:28:11.810Z,26.30
2022-08-05T07:30:52.731Z,26.50
2022-08-05T07:33:36.745Z,26.50
2022-08-05T07:36:21.306Z,26.60
2022-08-05T07:38:54.668Z,26.70
2022-08-05T07:42:14.449Z,27.00
2022-08-05T07:44:19.083Z,27.20
2022-08-05T07:46:49.587Z,27.40
2022-08-05T07:49:21.504Z,27.50
2022-08-05T07:51:54.549Z,27.70
2022-08-05T07:54:30.670Z,27.90
2022-08-05T07:57:17.788Z,28.00
2022-08-05T07:59:54.423Z,28.20
2022-08-05T08:02:31.313Z,28.40
2022-08-05T08:05:19.714Z,28.60
2022-08-05T08:07:59.967Z,28.60
2022-08-05T08:10:28.813Z,28.80
2022-08-05T08:13:00.676Z,28.70
2022-08-05T08:16:33.331Z,28.80
2022-08-05T08:18:21.240Z,28.90
2022-08-05T08:21:02.694Z,29.10
2022-08-05T08:24:02.489Z,29.10
2022-08-05T08:26:26.733Z,29.20
2022-08-05T08:29:02.345Z,29.20
2022-08-05T08:31:48.341Z,29.40
2022-08-05T08:34:30.389Z,29.60
2022-08-05T08:37:05.251Z,29.80
2022-08-05T08:39:37.356Z,29.90
2022-08-05T08:42:34.073Z,30.00
2022-08-05T08:45:23.125Z,30.10
2022-08-05T08:48:06.618Z,30.30
2022-08-05T08:51:04.034Z,30.60
2022-08-05T08:53:46.911Z,30.60
2022-08-05T08:56:18.203Z,30.60
2022-08-05T08:58:48.640Z,30.80
2022-08-05T09:01:20.567Z,30.90
2022-08-05T09:03:55.525Z,31.00
2022-08-05T09:06:30.176Z,31.00
2022-08-05T09:08:59.879Z,31.30
2022-08-05T09:11:51.580Z,31.30
2022-08-05T09:14:58.480Z,31.30
2022-08-05T09:17:43.088Z,31.50
2022-08-05T09:20:09.882Z,32.10
2022-08-05T09:23:05.267Z,32.10
2022-08-05T09:26:03.325Z,32.00
2022-08-05T09:28:32.125Z,32.30
2022-08-05T09:31:44.023Z,32.40
2022-08-05T09:34:14.072Z,32.50
2022-08-05T09:36:54.167Z,32.60
2022-08-05T09:39:39.290Z,33.00
2022-08-05T09:42:17.290Z,33.40
2022-08-05T09:44:50.584Z,33.60
2022-08-05T09:47:23.475Z,33.60
2022-08-05T09:50:01.567Z,33.50
2022-08-05T09:52:32.221Z,32.90
2022-08-05T09:55:06.460Z,32.30
2022-08-05T09:57:48.883Z,32.00
2022-08-05T10:00:26.671Z,31.70
2022-08-05T10:02:58.628Z,31.50
2022-08-05T10:05:32.744Z,31.30
2022-08-05T10:08:34.653Z,31.10
2022-08-05T10:10:56.488Z,30.90
2022-08-05T10:13:31.853Z,31.00
2022-08-05T10:16:32.100Z,31.40
2022-08-05T10:19:04.319Z,31.20
2022-08-05T10:21:40.351Z,31.10
2022-08-05T10:24:13.792Z,31.40
2022-08-05T10:26:48.989Z,32.20
2022-08-05T10:29:23.506Z,32.70
2022-08-05T10:32:53.219Z,33.40
2022-08-05T10:35:01.049Z,34.10
2022-08-05T10:37:40.311Z,33.90
2022-08-05T10:40:33.456Z,33.90
2022-08-05T10:43:12.622Z,33.40
2022-08-05T10:45:43.521Z,33.30
2022-08-05T10:48:36.013Z,33.90
2022-08-05T10:51:21.670Z,34.70
2022-08-05T10:53:58.574Z,35.40
2022-08-05T10:56:30.902Z,35.70
2022-08-05T10:59:11.389Z,35.80
2022-08-05T11:01:54.283Z,36.10
2022-08-05T11:04:31.710Z,36.00
2022-08-05T11:07:06.821Z,35.20
2022-08-05T11:09:45.743Z,34.10
2022-08-05T11:12:26.931Z,33.40
2022-08-05T11:15:19.647Z,32.50
2022-08-05T11:17:59.229Z,32.20
2022-08-05T11:20:33.709Z,32.90
2022-08-05T11:23:21.883Z,34.10
2022-08-05T11:26:08.850Z,34.40
2022-08-05T11:28:53.534Z,35.30
2022-08-05T11:31:54.420Z,35.50
2022-08-05T11:34:51.608Z,35.80
2022-08-05T11:38:30.298Z,34.60
2022-08-05T11:40:57.440Z,34.00
2022-08-05T11:44:05.002Z,35.10
2022-08-05T11:46:30.682Z,35.90
2022-08-05T11:49:01.985Z,36.70
2022-08-05T11:51:44.346Z,37.40
2022-08-05T11:54:33.972Z,37.90
2022-08-05T11:57:08.854Z,38.00
2022-08-05T11:59:52.867Z,38.60
2022-08-05T12:02:31.287Z,38.70
2022-08-05T12:05:07.939Z,39.10
2022-08-05T12:08:03.468Z,39.80
2022-08-05T12:10:43.402Z,39.90
2022-08-05T12:13:17.252Z,38.20
2022-08-05T12:15:49.740Z,36.60
2022-08-05T12:18:38.947Z,35.50
2022-08-05T12:21:11.400Z,34.50
2022-08-05T12:23:42.919Z,33.80
2022-08-05T12:26:12.266Z,33.20
2022-08-05T12:28:42.581Z,32.80
2022-08-05T12:31:23.241Z,32.90
2022-08-05T12:34:03.614Z,32.70
2022-08-05T12:36:34.437Z,32.70
2022-08-05T12:39:05.515Z,33.10
2022-08-05T12:41:36.045Z,33.90
2022-08-05T12:44:14.398Z,33.70
2022-08-05T12:46:53.958Z,34.00
2022-08-05T12:49:25.453Z,35.50
2022-08-05T12:52:13.049Z,36.60
2022-08-05T12:54:51.731Z,37.50
2022-08-05T12:57:23.230Z,38.00
2022-08-05T13:01:57.017Z,38.40
2022-08-05T13:02:43.821Z,38.50
2022-08-05T13:05:19.075Z,38.90
2022-08-05T13:07:59.484Z,39.10
2022-08-05T13:10:28.683Z,39.10
2022-08-05T13:12:58.587Z,39.20
2022-08-05T13:15:41.464Z,39.50
2022-08-05T13:18:21.633Z,39.80
2022-08-05T13:20:53.009Z,40.10
2022-08-05T13:23:22.549Z,40.20
2022-08-05T13:25:59.281Z,40.50
2022-08-05T13:28:32.305Z,40.50
2022-08-05T13:31:03.306Z,40.40
2022-08-05T13:34:22.109Z,40.60
2022-08-05T13:36:30.609Z,40.70
2022-08-05T13:38:58.893Z,40.30
2022-08-05T13:41:37.363Z,39.90
2022-08-05T13:44:06.820Z,40.00
2022-08-05T13:49:31.446Z,39.80
2022-08-05T13:52:12.955Z,40.30
2022-08-05T13:54:42.438Z,40.50
2022-08-05T13:57:27.201Z,40.50
2022-08-05T14:00:18.835Z,40.40
2022-08-05T14:02:56.899Z,40.30
2022-08-05T14:05:29.729Z,40.00
2022-08-05T14:08:21.224Z,40.00
2022-08-05T14:10:59.685Z,40.30
2022-08-05T14:13:34.622Z,40.20
2022-08-05T14:16:07.885Z,40.20
2022-08-05T14:18:38.058Z,40.10
2022-08-05T14:22:09.477Z,40.10
2022-08-05T14:23:57.864Z,40.50
2022-08-05T14:26:38.778Z,40.20
2022-08-05T14:29:16.756Z,40.10
2022-08-05T14:32:03.945Z,39.60
2022-08-05T14:34:35.610Z,39.40
2022-08-05T14:37:05.106Z,39.30
2022-08-05T14:39:49.300Z,39.30
2022-08-05T14:42:25.006Z,39.00
2022-08-05T14:44:53.301Z,38.90
2022-08-05T14:47:58.496Z,38.80
2022-08-05T14:50:18.071Z,38.60
2022-08-05T14:52:53.567Z,38.10
2022-08-05T14:55:38.460Z,38.10
2022-08-05T14:58:11.358Z,38.00
2022-08-05T15:00:58.262Z,37.90
2022-08-05T15:03:33.085Z,37.60
2022-08-05T15:06:08.294Z,37.00
2022-08-05T15:08:59.214Z,37.00
2022-08-05T15:11:51.752Z,36.80
2022-08-05T15:14:48.219Z,36.70
2022-08-05T15:17:45.656Z,36.60
2022-08-05T15:20:36.749Z,36.40
2022-08-05T15:23:18.208Z,36.40
2022-08-05T15:26:02.561Z,36.20
2022-08-05T15:28:37.743Z,36.10
2022-08-05T15:31:24.725Z,35.90
2022-08-05T15:34:32.609Z,35.80
2022-08-05T15:38:33.410Z,35.30
2022-08-05T15:41:02.131Z,35.00
2022-08-05T15:43:28.025Z,35.00
2022-08-05T15:46:05.911Z,34.90
2022-08-05T15:48:51.922Z,35.00
2022-08-05T15:52:12.619Z,34.80
2022-08-05T15:54:43.785Z,34.70
2022-08-05T15:57:23.027Z,34.60
2022-08-05T16:00:02.437Z,34.10
2022-08-05T16:02:39.779Z,34.00
2022-08-05T16:05:28.342Z,33.50
2022-08-05T16:08:08.722Z,33.30
2022-08-05T16:10:42.819Z,33.20
2022-08-05T16:13:23.437Z,33.10
2022-08-05T16:16:10.628Z,33.10
2022-08-05T16:18:52.314Z,33.10
2022-08-05T16:21:58.972Z,32.80
2022-08-05T16:24:51.666Z,32.50
2022-08-05T16:27:32.267Z,32.10
2022-08-05T16:30:26.141Z,31.90
2022-08-05T16:33:07.180Z,31.80
2022-08-05T16:35:42.198Z,31.60
2022-08-05T16:38:25.136Z,31.40
2022-08-05T16:41:21.650Z,31.10
2022-08-05T16:44:19.057Z,30.90
2022-08-05T16:47:01.794Z,30.70
2022-08-05T16:49:39.485Z,30.50
2022-08-05T16:52:09.876Z,30.20
2022-08-05T16:54:48.785Z,29.90
2022-08-05T16:57:30.154Z,29.60
2022-08-05T17:00:34.348Z,29.10
2022-08-05T17:03:19.760Z,29.00
2022-08-05T17:06:03.218Z,28.60
2022-08-05T17:08:53.286Z,28.40
2022-08-05T17:11:36.019Z,28.00
2022-08-05T17:14:37.161Z,27.90
2022-08-05T17:17:19.690Z,27.70
2022-08-05T17:20:03.373Z,27.50
2022-08-05T17:22:46.944Z,27.40
2022-08-05T17:25:39.480Z,27.20
2022-08-05T17:28:18.540Z,27.00
2022-08-05T17:30:55.895Z,26.70
2022-08-05T17:33:29.895Z,26.70
2022-08-05T17:36:32.817Z,26.40
2022-08-05T17:39:24.305Z,26.30
2022-08-05T17:42:17.352Z,26.00
2022-08-05T17:44:59.043Z,25.80
2022-08-05T17:47:36.836Z,25.70
2022-08-05T17:50:27.748Z,25.50
2022-08-05T17:53:12.887Z,25.50
2022-08-05T17:55:50.672Z,25.30
2022-08-05T17:58:32.282Z,25.00
2022-08-05T18:01:09.877Z,24.90
2022-08-05T18:03:58.494Z,24.80
2022-08-05T18:06:46.889Z,24.70
2022-08-05T18:09:59.865Z,24.70
2022-08-05T18:12:40.869Z,24.50
2022-08-05T18:15:14.327Z,24.40
2022-08-05T18:18:02.758Z,24.30
2022-08-05T18:20:39.036Z,24.10
2022-08-05T18:23:20.887Z,24.10
2022-08-05T18:25:59.413Z,24.10
2022-08-05T18:28:39.985Z,23.90
2022-08-05T18:31:17.270Z,23.90
2022-08-05T18:33:59.852Z,23.70
2022-08-05T18:36:39.679Z,23.60
2022-08-05T18:40:30.896Z,23.50
2022-08-05T18:42:33.068Z,23.30
2022-08-05T18:45:10.490Z,23.30
2022-08-05T18:47:53.009Z,23.10
2022-08-05T18:50:46.983Z,23.00
2022-08-05T18:53:30.080Z,22.80
2022-08-05T18:56:12.995Z,22.80
2022-08-05T18:58:53.480Z,22.70
2022-08-05T19:01:47.661Z,22.50
2022-08-05T19:04:32.024Z,22.60
2022-08-05T19:07:12.916Z,22.60
2022-08-05T19:09:46.977Z,22.40
2022-08-05T19:12:37.551Z,22.40
2022-08-05T19:15:57.443Z,22.40
2022-08-05T19:18:35.079Z,22.40
2022-08-05T19:21:20.451Z,22.30
2022-08-05T19:24:05.510Z,22.20
2022-08-05T19:26:55.293Z,22.30
2022-08-05T19:29:36.657Z,22.30
2022-08-05T19:32:15.704Z,22.20
2022-08-05T19:35:05.814Z,22.20
2022-08-05T19:38:04.741Z,22.10
2022-08-05T19:40:58.038Z,21.90
2022-08-05T19:44:06.886Z,21.90
2022-08-05T19:46:50.241Z,21.80
2022-08-05T19:49:34.108Z,21.70
2022-08-05T19:52:30.889Z,21.60
2022-08-05T19:56:15.271Z,21.50
2022-08-05T19:58:29.420Z,21.40
2022-08-05T20:01:27.229Z,21.20
2022-08-05T20:04:05.964Z,21.10
2022-08-05T20:06:49.987Z,21.20
2022-08-05T20:09:24.654Z,21.10
2022-08-05T20:12:11.950Z,21.00
2022-08-05T20:14:52.739Z,21.10
2022-08-05T20:17:30.111Z,21.00
2022-08-05T20:20:15.775Z,21.00
2022-08-05T20:22:55.817Z,20.90
2022-08-05T20:25:33.716Z,20.90
2022-08-05T20:28:29.003Z,20.90
2022-08-05T20:31:10.992Z,20.80
2022-08-05T20:33:51.025Z,20.70
2022-08-05T20:36:25.063Z,20.60
2022-08-05T20:39:02.168Z,20.40
2022-08-05T20:41:56.106Z,20.50
2022-08-05T20:44:42.415Z,20.40
2022-08-05T20:47:31.810Z,20.40
2022-08-05T20:50:13.155Z,20.20
2022-08-05T20:52:50.214Z,20.00
2022-08-05T20:55:56.640Z,20.00
2022-08-05T20:59:04.120Z,19.90
2022-08-05T21:01:57.526Z,19.90
2022-08-05T21:04:40.483Z,19.80
2022-08-05T21:07:21.259Z,19.90
2022-08-05T21:10:00.092Z,19.70
2022-08-05T21:12:57.603Z,19.70
2022-08-05T21:15:55.875Z,19.60
2022-08-05T21:18:35.943Z,19.30
2022-08-05T21:21:24.393Z,19.20
2022-08-05T21:24:04.551Z,19.40
2022-08-05T21:26:39.103Z,19.40
2022-08-05T21:29:26.168Z,19.30
2022-08-05T21:32:10.964Z,19.30
2022-08-05T21:35:08.760Z,19.30
2022-08-05T21:37:56.120Z,19.20
2022-08-05T21:40:35.138Z,19.10
2022-08-05T21:43:24.767Z,19.10
2022-08-05T21:46:01.516Z,19.10
2022-08-05T21:48:44.099Z,19.00
2022-08-05T21:51:25.028Z,19.00
2022-08-05T21:54:27.844Z,19.00
2022-08-05T21:57:15.466Z,19.00
2022-08-05T22:00:06.050Z,19.10
2022-08-05T22:02:46.107Z,18.90
2022-08-05T22:05:16.693Z,18.80
2022-08-05T22:07:58.682Z,18.90
2022-08-05T22:10:30.971Z,18.80
2022-08-05T22:14:06.506Z,18.80
2022-08-05T22:16:02.035Z,18.80
2022-08-05T22:18:41.577Z,18.70
2022-08-05T22:21:19.395Z,18.80
2022-08-05T22:24:09.101Z,18.80
2022-08-05T22:26:59.960Z,18.80
2022-08-05T22:29:30.892Z,18.90
2022-08-05T22:32:02.786Z,18.90
2022-08-05T22:34:34.138Z,19.00
2022-08-05T22:37:04.774Z,19.00
2022-08-05T22:39:34.790Z,18.90
2022-08-05T22:42:11.386Z,18.90
2022-08-05T22:44:56.225Z,18.90
2022-08-05T22:47:29.268Z,18.70
2022-08-05T22:50:19.178Z,18.70
2022-08-05T22:52:47.327Z,18.60
2022-08-05T22:55:18.289Z,18.60
2022-08-05T22:57:46.590Z,18.60
2022-08-05T23:00:18.333Z,18.60
2022-08-05T23:02:50.511Z,18.50
2022-08-05T23:05:19.077Z,18.50
2022-08-05T23:07:53.842Z,18.40
2022-08-05T23:10:23.679Z,18.40
2022-08-05T23:12:55.245Z,18.40
2022-08-05T23:15:30.010Z,18.40
2022-08-05T23:18:03.265Z,18.40
2022-08-05T23:20:33.033Z,18.40
2022-08-05T23:23:06.014Z,18.40
2022-08-05T23:25:52.911Z,18.20
2022-08-05T23:28:24.149Z,18.10
2022-08-05T23:31:16.728Z,18.10
2022-08-05T23:34:04.360Z,18.00
2022-08-05T23:36:40.093Z,18.00
2022-08-05T23:39:17.589Z,18.00
2022-08-05T23:42:04.468Z,18.00
2022-08-05T23:44:37.046Z,17.90
2022-08-05T23:47:14.998Z,17.90
2022-08-05T23:49:46.894Z,17.80
2022-08-05T23:52:27.524Z,17.90
2022-08-05T23:54:57.059Z,18.00
2022-08-05T23:57:28.077Z,18.00
